Main page
METAR-TAF:

METAR-TAF

Airports :

Khartoum International Airport

Khartoum, Sudan

latitude: 15-36N, longitude: 032-33E, elevation: 382 m

Current weather observation

The report was made 25 minutes ago, at 22:00 UTC
Wind 7 kt from the West
Temperature 27°C
Humidity 70%
Pressure 1012 hPa
Visibility 10 km or more
no clouds below 1500 m and no cumulonimbus

METAR: HSSS 182200Z 27007KT CAVOK 27/21 Q1012 NOSIG

Time: 01:25 (22:25 UTC)

Forecast

The report was made 5 hours and 25 minutes ago, at 17:00 UTC
Forecast valid from 18 at 18 UTC to 19 at 24 UTC
Wind 8 kt from the South/Southwest with gusts up to 18 kt
Visibility 10 km or more
Few clouds at a height of 4000 ft
Scattered clouds at a height of 14000 ft
Probability 30%
from 18 at 21 UTC to 19 at 00 UTC
Visibility: 6000 m
Few clouds at a height of 5000 ft, Cumulonimbus.
Broken clouds at a height of 14000 ft
thunderstorm, rain

TAF: HSSS 181700Z 1818/1924 21008G18KT 9999 FEW040 SCT140 PROB30 1821/1900 6000 TSRA FEW050CB BKN140

Weather observations and forecasts of more than 4000 airports (METAR and TAF reports).

The available stations are represented by yellow and red dots on the map.

Hover mouse over dot to see the name of the station.

Then click to see weather observations and forecasts.

To change the map : click on the green buttons with a black cross to zoom in, on the green button with a dash to zoom out, or on the green arrows for adjacent maps.


METAR-TAF: